createdAt,value
2018-10-21T00:02:01.434Z,101977.20
2018-10-21T00:04:29.593Z,101972.59
2018-10-21T00:06:57.683Z,101973.79
2018-10-21T00:09:25.785Z,101970.52
2018-10-21T00:11:53.932Z,101981.36
2018-10-21T00:14:22.108Z,101985.75
2018-10-21T00:16:50.240Z,101980.02
2018-10-21T00:19:18.356Z,101974.33
2018-10-21T00:21:46.488Z,101979.03
2018-10-21T00:24:14.611Z,101965.85
2018-10-21T00:26:42.708Z,101971.19
2018-10-21T00:29:10.806Z,101967.34
2018-10-21T00:31:38.915Z,101969.52
2018-10-21T00:34:07.018Z,101962.64
2018-10-21T00:36:35.109Z,101973.98
2018-10-21T00:39:03.341Z,101971.75
2018-10-21T00:41:31.445Z,101973.59
2018-10-21T00:43:59.712Z,101971.27
2018-10-21T00:46:27.807Z,101957.86
2018-10-21T00:48:55.905Z,101960.83
2018-10-21T00:51:24.036Z,101957.88
2018-10-21T00:53:52.209Z,101959.84
2018-10-21T00:56:20.295Z,101961.94
2018-10-21T00:58:48.404Z,101961.48
2018-10-21T01:01:16.726Z,101965.45
2018-10-21T01:03:44.838Z,101962.00
2018-10-21T01:06:12.933Z,101955.00
2018-10-21T01:08:41.055Z,101948.39
2018-10-21T01:11:09.140Z,101946.47
2018-10-21T01:13:37.283Z,101954.80
2018-10-21T01:16:05.499Z,101942.20
2018-10-21T01:18:33.619Z,101951.30
2018-10-21T01:21:01.781Z,101947.37
2018-10-21T01:23:29.863Z,101949.41
2018-10-21T01:25:57.953Z,101941.29
2018-10-21T01:28:26.183Z,101935.09
2018-10-21T01:30:54.315Z,101931.54
2018-10-21T01:33:22.414Z,101935.14
2018-10-21T01:35:50.515Z,101930.11
2018-10-21T01:38:18.685Z,101925.45
2018-10-21T01:40:47.780Z,101924.87
2018-10-21T01:43:17.087Z,101924.79
2018-10-21T01:45:45.380Z,101924.42
2018-10-21T01:48:14.660Z,101926.41
2018-10-21T01:50:42.855Z,101924.72
2018-10-21T01:53:11.939Z,101928.23
2018-10-21T01:55:40.044Z,101934.68
2018-10-21T01:58:08.386Z,101934.83
2018-10-21T02:00:36.767Z,101946.75
2018-10-21T02:03:05.137Z,101936.50
2018-10-21T02:05:33.604Z,101942.90
2018-10-21T02:08:01.690Z,101942.31
2018-10-21T02:10:29.795Z,101950.75
2018-10-21T02:12:57.922Z,101943.95
2018-10-21T02:15:26.106Z,101940.72
2018-10-21T02:17:54.200Z,101934.63
2018-10-21T02:20:22.907Z,101931.91
2018-10-21T02:22:51.285Z,101939.27
2018-10-21T02:25:19.407Z,101942.69
2018-10-21T02:27:48.342Z,101941.02
2018-10-21T02:30:17.728Z,101950.15
2018-10-21T02:32:46.735Z,101952.39
2018-10-21T02:35:15.528Z,101954.91
2018-10-21T02:37:44.127Z,101953.48
2018-10-21T02:41:27.504Z,101953.42
2018-10-21T02:43:55.632Z,101954.03
2018-10-21T02:46:24.309Z,101949.97
2018-10-21T02:48:53.680Z,101946.91
2018-10-21T02:51:21.845Z,101944.24
2018-10-21T02:53:49.967Z,101942.76
2018-10-21T02:56:18.182Z,101948.58
2018-10-21T02:58:46.284Z,101948.52
2018-10-21T03:01:14.399Z,101951.61
2018-10-21T03:03:42.496Z,101955.11
2018-10-21T03:06:10.617Z,101949.91
2018-10-21T03:08:39.384Z,101951.66
2018-10-21T03:11:07.588Z,101953.27
2018-10-21T03:13:35.760Z,101946.48
2018-10-21T03:16:04.327Z,101948.17
2018-10-21T03:18:32.543Z,101950.27
2018-10-21T03:21:01.431Z,101957.52
2018-10-21T03:23:29.552Z,101964.19
2018-10-21T03:25:57.833Z,101963.00
2018-10-21T03:28:25.926Z,101957.23
2018-10-21T03:30:54.027Z,101958.77
2018-10-21T03:33:22.383Z,101960.39
2018-10-21T03:35:50.256Z,101955.41
2018-10-21T03:38:18.443Z,101954.98
2018-10-21T03:40:46.583Z,101954.29
2018-10-21T03:43:14.683Z,101956.27
2018-10-21T03:45:42.770Z,101956.69
2018-10-21T03:48:10.884Z,101957.45
2018-10-21T03:50:38.983Z,101950.70
2018-10-21T03:53:07.136Z,101959.22
2018-10-21T03:55:37.655Z,101960.96
2018-10-21T03:58:06.198Z,101962.27
2018-10-21T04:00:34.553Z,101959.23
2018-10-21T04:03:03.100Z,101960.23
2018-10-21T04:05:31.254Z,101960.64
2018-10-21T04:07:59.391Z,101959.46
2018-10-21T04:10:27.492Z,101958.24
2018-10-21T04:12:55.792Z,101956.98
2018-10-21T04:15:23.966Z,101949.63
2018-10-21T04:17:52.097Z,101954.47
2018-10-21T04:20:20.384Z,101951.44
2018-10-21T04:22:50.444Z,101951.80
2018-10-21T04:25:18.809Z,101950.47
2018-10-21T04:27:46.904Z,101952.06
2018-10-21T04:30:18.760Z,101945.34
2018-10-21T04:32:48.499Z,101942.27
2018-10-21T04:35:17.041Z,101943.38
2018-10-21T04:38:38.379Z,101939.56
2018-10-21T04:41:06.559Z,101935.94
2018-10-21T04:43:34.719Z,101933.42
2018-10-21T04:46:02.833Z,101925.59
2018-10-21T04:48:30.911Z,101924.11
2018-10-21T04:50:59.020Z,101918.45
2018-10-21T04:53:27.161Z,101913.67
2018-10-21T04:55:55.261Z,101910.12
2018-10-21T04:58:23.389Z,101913.48
2018-10-21T05:00:51.759Z,101904.64
2018-10-21T05:03:19.707Z,101913.45
2018-10-21T05:05:47.909Z,101905.55
2018-10-21T05:08:16.006Z,101901.92
2018-10-21T05:10:44.103Z,101909.03
2018-10-21T05:13:12.203Z,101907.69
2018-10-21T05:15:40.655Z,101907.70
2018-10-21T05:18:08.767Z,101900.65
2018-10-21T05:20:36.899Z,101901.13
2018-10-21T05:23:05.076Z,101903.63
2018-10-21T05:25:33.186Z,101904.77
2018-10-21T05:28:01.318Z,101905.42
2018-10-21T05:30:29.397Z,101911.23
2018-10-21T05:32:57.511Z,101904.13
2018-10-21T05:35:25.639Z,101905.14
2018-10-21T05:37:53.814Z,101907.78
2018-10-21T05:40:22.732Z,101908.40
2018-10-21T05:42:51.044Z,101916.95
2018-10-21T05:45:19.132Z,101919.39
2018-10-21T05:47:47.235Z,101918.08
2018-10-21T05:50:16.034Z,101919.41
2018-10-21T05:52:44.482Z,101923.23
2018-10-21T05:55:13.255Z,101919.98
2018-10-21T05:57:41.412Z,101929.15
2018-10-21T06:00:14.658Z,101935.73
2018-10-21T06:02:43.027Z,101937.63
2018-10-21T06:05:22.394Z,101938.48
2018-10-21T06:07:50.487Z,101943.45
2018-10-21T06:10:18.745Z,101947.36
2018-10-21T06:12:46.757Z,101942.53
2018-10-21T06:15:14.847Z,101944.95
2018-10-21T06:17:42.944Z,101961.45
2018-10-21T06:20:18.821Z,101950.84
2018-10-21T06:22:47.387Z,101961.55
2018-10-21T06:25:15.508Z,101958.92
2018-10-21T06:27:43.693Z,101966.88
2018-10-21T06:30:12.520Z,101975.92
2018-10-21T06:32:40.808Z,101978.30
2018-10-21T06:35:09.769Z,101981.82
2018-10-21T06:37:38.007Z,101978.55
2018-10-21T06:40:07.704Z,101978.20
2018-10-21T06:42:35.841Z,101985.92
2018-10-21T06:45:04.009Z,101988.92
2018-10-21T06:47:32.167Z,101996.98
2018-10-21T06:50:00.289Z,101997.71
2018-10-21T06:52:28.388Z,101995.89
2018-10-21T06:54:56.474Z,102001.79
2018-10-21T06:57:24.948Z,101999.36
2018-10-21T06:59:52.888Z,102006.41
2018-10-21T07:02:21.014Z,102008.45
2018-10-21T07:04:49.172Z,102012.53
2018-10-21T07:07:17.280Z,102014.43
2018-10-21T07:09:45.375Z,102007.77
2018-10-21T07:12:13.494Z,102015.00
2018-10-21T07:14:41.597Z,102012.34
2018-10-21T07:17:09.687Z,102014.52
2018-10-21T07:19:37.787Z,102016.54
2018-10-21T07:22:05.997Z,102011.59
2018-10-21T07:24:34.031Z,102008.92
2018-10-21T07:27:02.150Z,102002.45
2018-10-21T07:29:30.246Z,102003.66
2018-10-21T07:31:58.347Z,102011.93
2018-10-21T07:34:26.439Z,102015.81
2018-10-21T07:36:54.532Z,102017.65
2018-10-21T07:39:22.631Z,102010.97
2018-10-21T07:41:50.744Z,102004.84
2018-10-21T07:44:18.839Z,102005.62
2018-10-21T07:46:46.975Z,102005.02
2018-10-21T07:49:15.144Z,102008.29
2018-10-21T07:51:43.203Z,102000.22
2018-10-21T07:54:11.315Z,102004.44
2018-10-21T07:56:39.467Z,102014.80
2018-10-21T07:59:07.605Z,102005.78
2018-10-21T08:01:35.696Z,102004.62
2018-10-21T08:04:03.814Z,102005.63
2018-10-21T08:06:43.290Z,102008.57
2018-10-21T08:09:12.066Z,102007.45
2018-10-21T08:11:40.159Z,102014.19
2018-10-21T08:14:08.266Z,102011.75
2018-10-21T08:16:36.378Z,102011.43
2018-10-21T08:19:04.566Z,102011.78
2018-10-21T08:21:32.656Z,102015.73
2018-10-21T08:24:00.750Z,102009.67
2018-10-21T08:26:28.868Z,102014.28
2018-10-21T08:28:56.975Z,102015.19
2018-10-21T08:31:25.072Z,102014.77
2018-10-21T08:33:53.204Z,102009.85
2018-10-21T08:36:21.319Z,102011.61
2018-10-21T08:38:49.468Z,102014.88
2018-10-21T08:41:17.565Z,102014.45
2018-10-21T08:43:45.763Z,102015.33
2018-10-21T08:46:13.954Z,102013.09
2018-10-21T08:48:42.144Z,102004.22
2018-10-21T08:51:10.455Z,102004.61
2018-10-21T08:53:38.562Z,101999.58
2018-10-21T08:56:06.663Z,102003.55
2018-10-21T08:58:34.787Z,102001.52
2018-10-21T09:01:02.902Z,101995.71
2018-10-21T09:03:31.019Z,101987.75
2018-10-21T09:05:59.115Z,101992.48
2018-10-21T09:08:27.259Z,101984.03
2018-10-21T09:10:55.391Z,101985.33
2018-10-21T09:13:23.476Z,101983.59
2018-10-21T09:15:51.751Z,101977.27
2018-10-21T09:18:19.871Z,101980.66
2018-10-21T09:20:48.005Z,101972.58
2018-10-21T09:23:16.119Z,101969.81
2018-10-21T09:25:44.464Z,101977.22
2018-10-21T09:28:12.685Z,101974.77
2018-10-21T09:30:40.711Z,101981.02
2018-10-21T09:33:08.876Z,101977.99
2018-10-21T09:35:36.988Z,101983.11
2018-10-21T09:38:05.472Z,101979.01
2018-10-21T09:40:33.628Z,101977.72
2018-10-21T09:43:01.793Z,101974.29
2018-10-21T09:45:29.939Z,101972.52
2018-10-21T09:47:58.155Z,101969.39
2018-10-21T09:50:26.265Z,101973.27
2018-10-21T09:52:54.374Z,101971.20
2018-10-21T09:55:26.248Z,101971.92
2018-10-21T09:57:54.425Z,101961.04
2018-10-21T10:00:27.814Z,101968.23
2018-10-21T10:03:01.335Z,101964.10
2018-10-21T10:05:29.445Z,101955.56
2018-10-21T10:07:57.572Z,101958.95
2018-10-21T10:10:26.196Z,101953.41
2018-10-21T10:12:54.355Z,101948.72
2018-10-21T10:15:22.410Z,101943.53
2018-10-21T10:17:50.531Z,101938.84
2018-10-21T10:20:18.619Z,101933.47
2018-10-21T10:22:46.716Z,101931.80
2018-10-21T10:25:14.917Z,101936.13
2018-10-21T10:27:42.972Z,101932.09
2018-10-21T10:30:12.265Z,101935.09
2018-10-21T10:32:41.696Z,101926.56
2018-10-21T10:35:10.621Z,101923.81
2018-10-21T10:37:38.755Z,101921.80
2018-10-21T10:40:07.359Z,101918.73
2018-10-21T10:42:35.433Z,101913.50
2018-10-21T10:45:03.560Z,101910.46
2018-10-21T10:47:31.736Z,101905.70
2018-10-21T10:49:59.898Z,101898.45
2018-10-21T10:52:28.009Z,101888.83
2018-10-21T10:54:56.148Z,101886.30
2018-10-21T10:57:24.313Z,101883.42
2018-10-21T10:59:52.567Z,101882.19
2018-10-21T11:02:20.529Z,101869.62
2018-10-21T11:04:48.706Z,101873.13
2018-10-21T11:07:17.023Z,101866.06
2018-10-21T11:09:45.084Z,101867.42
2018-10-21T11:12:13.179Z,101863.61
2018-10-21T11:14:41.296Z,101857.05
2018-10-21T11:17:09.384Z,101855.73
2018-10-21T11:19:37.514Z,101852.66
2018-10-21T11:22:05.793Z,101844.02
2018-10-21T11:24:38.060Z,101849.39
2018-10-21T11:27:06.959Z,101842.42
2018-10-21T11:29:35.075Z,101839.84
2018-10-21T11:32:03.175Z,101838.65
2018-10-21T11:34:31.328Z,101831.63
2018-10-21T11:36:59.445Z,101838.31
2018-10-21T11:39:27.522Z,101829.48
2018-10-21T11:41:55.648Z,101827.45
2018-10-21T11:44:23.732Z,101825.80
2018-10-21T11:46:52.004Z,101812.87
2018-10-21T11:49:20.158Z,101824.94
2018-10-21T11:51:48.260Z,101817.36
2018-10-21T11:54:16.356Z,101820.86
2018-10-21T11:56:44.603Z,101814.17
2018-10-21T11:59:12.728Z,101807.68
2018-10-21T12:01:40.825Z,101809.06
2018-10-21T12:04:08.918Z,101808.47
2018-10-21T12:06:37.029Z,101801.52
2018-10-21T12:09:08.771Z,101799.52
2018-10-21T12:11:36.871Z,101795.36
2018-10-21T12:14:05.747Z,101795.72
2018-10-21T12:16:33.867Z,101794.38
2018-10-21T12:19:01.987Z,101802.31
2018-10-21T12:21:30.166Z,101781.67
2018-10-21T12:23:58.262Z,101781.69
2018-10-21T12:26:26.464Z,101778.72
2018-10-21T12:28:55.495Z,101768.81
2018-10-21T12:31:25.093Z,101767.09
2018-10-21T12:33:55.075Z,101768.23
2018-10-21T12:36:24.840Z,101767.53
2018-10-21T12:38:55.017Z,101767.86
2018-10-21T12:41:24.299Z,101760.58
2018-10-21T12:43:55.135Z,101759.16
2018-10-21T12:46:26.630Z,101763.04
2018-10-21T12:48:56.186Z,101766.62
2018-10-21T12:51:26.486Z,101765.91
2018-10-21T12:53:56.115Z,101764.56
2018-10-21T12:56:25.977Z,101765.98
2018-10-21T12:58:54.365Z,101764.45
2018-10-21T13:01:26.023Z,101766.03
2018-10-21T13:03:56.796Z,101757.67
2018-10-21T13:06:26.224Z,101763.76
2018-10-21T13:08:55.783Z,101759.08
2018-10-21T13:11:27.291Z,101757.09
2018-10-21T13:13:59.999Z,101752.08
2018-10-21T13:16:29.289Z,101749.61
2018-10-21T13:19:01.198Z,101743.83
2018-10-21T13:21:31.923Z,101748.84
2018-10-21T13:24:02.357Z,101741.28
2018-10-21T13:26:34.894Z,101741.61
2018-10-21T13:29:05.535Z,101733.05
2018-10-21T13:31:35.129Z,101737.10
2018-10-21T13:34:06.796Z,101737.48
2018-10-21T13:36:39.409Z,101725.13
2018-10-21T13:39:12.373Z,101727.98
2018-10-21T13:44:23.076Z,101725.59
2018-10-21T13:46:57.904Z,101727.54
2018-10-21T13:49:29.338Z,101712.89
2018-10-21T13:52:04.338Z,101710.61
2018-10-21T13:54:35.343Z,101707.06
2018-10-21T13:57:05.346Z,101701.25
2018-10-21T13:59:36.646Z,101699.00
2018-10-21T14:02:07.171Z,101694.62
2018-10-21T14:04:38.339Z,101693.27
2018-10-21T14:07:06.993Z,101686.10
2018-10-21T14:09:40.172Z,101683.31
2018-10-21T14:12:10.356Z,101687.19
2018-10-21T14:14:39.898Z,101684.99
2018-10-21T14:17:09.329Z,101690.39
2018-10-21T14:19:39.431Z,101679.26
2018-10-21T14:22:10.838Z,101679.62
2018-10-21T14:24:40.210Z,101679.30
2018-10-21T14:27:08.244Z,101679.34
2018-10-21T14:29:36.426Z,101674.03
2018-10-21T14:32:04.573Z,101670.30
2018-10-21T14:34:32.677Z,101671.03
2018-10-21T14:37:00.766Z,101669.93
2018-10-21T14:39:28.914Z,101666.48
2018-10-21T14:41:57.082Z,101664.67
2018-10-21T14:44:25.263Z,101661.16
2018-10-21T14:46:53.383Z,101660.53
2018-10-21T14:49:21.488Z,101659.39
2018-10-21T14:51:49.621Z,101654.63
2018-10-21T14:54:17.844Z,101658.20
2018-10-21T14:56:45.979Z,101655.59
2018-10-21T14:59:14.141Z,101654.11
2018-10-21T15:01:42.295Z,101649.88
2018-10-21T15:04:10.473Z,101660.93
2018-10-21T15:06:38.493Z,101654.50
2018-10-21T15:09:10.024Z,101650.72
2018-10-21T15:11:38.117Z,101647.09
2018-10-21T15:14:06.259Z,101648.23
2018-10-21T15:16:34.292Z,101641.98
2018-10-21T15:19:02.481Z,101643.72
2018-10-21T15:21:30.604Z,101648.10
2018-10-21T15:23:58.728Z,101644.27
2018-10-21T15:26:26.851Z,101644.94
2018-10-21T15:28:55.056Z,101641.61
2018-10-21T15:31:23.107Z,101642.96
2018-10-21T15:33:51.232Z,101640.43
2018-10-21T15:36:19.324Z,101644.86
2018-10-21T15:38:47.516Z,101642.45
2018-10-21T15:41:15.675Z,101636.94
2018-10-21T15:43:43.813Z,101636.71
2018-10-21T15:46:12.019Z,101637.81
2018-10-21T15:48:40.050Z,101634.25
2018-10-21T15:51:08.162Z,101637.94
2018-10-21T15:53:36.243Z,101634.56
2018-10-21T15:56:04.465Z,101635.61
2018-10-21T15:58:32.521Z,101640.75
2018-10-21T16:01:00.691Z,101639.05
2018-10-21T16:03:28.815Z,101638.71
2018-10-21T16:05:56.927Z,101634.17
2018-10-21T16:08:25.059Z,101639.08
2018-10-21T16:10:53.203Z,101634.94
2018-10-21T16:13:21.335Z,101639.69
2018-10-21T16:15:49.512Z,101635.98
2018-10-21T16:18:17.559Z,101639.10
2018-10-21T16:20:45.672Z,101640.39
2018-10-21T16:23:13.755Z,101641.23
2018-10-21T16:25:42.136Z,101643.20
2018-10-21T16:28:10.122Z,101641.26
2018-10-21T16:30:38.350Z,101644.51
2018-10-21T16:33:06.362Z,101645.95
2018-10-21T16:35:34.463Z,101647.41
2018-10-21T16:38:02.551Z,101652.64
2018-10-21T16:40:30.636Z,101648.84
2018-10-21T16:42:58.735Z,101652.08
2018-10-21T16:45:26.847Z,101645.17
2018-10-21T16:47:54.982Z,101648.03
2018-10-21T16:50:25.632Z,101652.98
2018-10-21T16:52:56.238Z,101655.38
2018-10-21T16:55:27.584Z,101655.45
2018-10-21T16:57:56.762Z,101651.30
2018-10-21T17:00:25.471Z,101649.22
2018-10-21T17:02:54.578Z,101652.67
2018-10-21T17:05:23.856Z,101652.42
2018-10-21T17:07:52.411Z,101656.75
2018-10-21T17:10:23.864Z,101653.91
2018-10-21T17:12:53.840Z,101652.72
2018-10-21T17:15:22.422Z,101655.91
2018-10-21T17:17:51.399Z,101652.02
2018-10-21T17:20:19.718Z,101658.33
2018-10-21T17:22:54.998Z,101657.72
2018-10-21T17:25:27.205Z,101659.06
2018-10-21T17:27:58.481Z,101657.08
2018-10-21T17:30:28.568Z,101663.02
2018-10-21T17:32:56.692Z,101658.72
2018-10-21T17:35:25.635Z,101657.89
2018-10-21T17:37:56.309Z,101661.25
2018-10-21T17:40:26.341Z,101658.89
2018-10-21T17:42:55.633Z,101659.09
2018-10-21T17:45:24.524Z,101660.06
2018-10-21T17:47:52.769Z,101657.39
2018-10-21T17:50:22.773Z,101659.41
2018-10-21T17:52:52.344Z,101659.91
2018-10-21T17:55:21.382Z,101660.75
2018-10-21T17:57:50.208Z,101664.41
2018-10-21T18:00:19.784Z,101656.90
2018-10-21T18:02:47.986Z,101656.72
2018-10-21T18:05:17.357Z,101661.87
2018-10-21T18:07:46.364Z,101660.55
2018-10-21T18:10:16.046Z,101660.91
2018-10-21T18:12:45.414Z,101664.39
2018-10-21T18:15:13.894Z,101666.75
2018-10-21T18:17:50.535Z,101666.39
2018-10-21T18:20:19.964Z,101660.84
2018-10-21T18:22:51.773Z,101664.03
2018-10-21T18:25:20.976Z,101663.96
2018-10-21T18:27:50.816Z,101662.77
2018-10-21T18:30:20.918Z,101663.41
2018-10-21T18:32:49.237Z,101662.45
2018-10-21T18:35:17.826Z,101654.37
2018-10-21T18:37:46.112Z,101655.84
2018-10-21T18:40:14.941Z,101656.20
2018-10-21T18:42:44.068Z,101660.84
2018-10-21T18:45:14.108Z,101666.84
2018-10-21T18:47:42.984Z,101666.98
2018-10-21T18:50:13.202Z,101664.63
2018-10-21T18:52:42.081Z,101666.55
2018-10-21T18:55:11.102Z,101669.72
2018-10-21T18:57:39.429Z,101663.17
2018-10-21T19:00:10.389Z,101667.05
2018-10-21T19:02:39.556Z,101659.06
2018-10-21T19:05:10.190Z,101664.54
2018-10-21T19:07:40.200Z,101662.41
2018-10-21T19:10:11.178Z,101662.36
2018-10-21T19:12:39.344Z,101662.72
2018-10-21T19:15:10.162Z,101670.30
2018-10-21T19:17:40.988Z,101669.07
2018-10-21T19:20:11.765Z,101670.34
2018-10-21T19:22:40.610Z,101677.63
2018-10-21T19:25:12.335Z,101674.29
2018-10-21T19:27:40.527Z,101681.44
2018-10-21T19:30:11.499Z,101678.86
2018-10-21T19:32:40.341Z,101681.69
2018-10-21T19:35:09.635Z,101678.62
2018-10-21T19:37:53.618Z,101679.62
2018-10-21T19:40:21.877Z,101680.59
2018-10-21T19:42:50.206Z,101678.89
2018-10-21T19:45:18.737Z,101682.33
2018-10-21T19:47:47.316Z,101685.51
2018-10-21T19:50:17.202Z,101691.59
2018-10-21T19:52:46.248Z,101686.16
2018-10-21T19:55:14.818Z,101685.55
2018-10-21T19:57:43.666Z,101691.39
2018-10-21T20:00:13.988Z,101682.95
2018-10-21T20:02:42.525Z,101682.97
2018-10-21T20:05:11.272Z,101680.83
2018-10-21T20:07:41.745Z,101680.55
2018-10-21T20:10:13.114Z,101679.34
2018-10-21T20:12:44.452Z,101680.89
2018-10-21T20:15:13.588Z,101682.97
2018-10-21T20:17:45.586Z,101681.97
2018-10-21T20:20:15.215Z,101684.69
2018-10-21T20:22:43.555Z,101687.27
2018-10-21T20:25:12.883Z,101684.61
2018-10-21T20:27:43.364Z,101678.09
2018-10-21T20:30:12.757Z,101681.63
2018-10-21T20:32:41.096Z,101684.66
2018-10-21T20:35:11.434Z,101688.16
2018-10-21T20:37:39.799Z,101685.22
2018-10-21T20:40:09.276Z,101691.76
2018-10-21T20:42:37.489Z,101681.81
2018-10-21T20:45:08.028Z,101682.98
2018-10-21T20:47:37.070Z,101682.45
2018-10-21T20:50:05.675Z,101684.47
2018-10-21T20:52:34.083Z,101688.95
2018-10-21T20:55:02.564Z,101686.55
2018-10-21T20:57:31.078Z,101687.58
2018-10-21T20:59:59.257Z,101681.23
2018-10-21T21:02:28.274Z,101692.64
2018-10-21T21:04:56.606Z,101694.23
2018-10-21T21:07:25.512Z,101692.30
2018-10-21T21:09:54.330Z,101689.61
2018-10-21T21:12:23.314Z,101699.59
2018-10-21T21:14:52.437Z,101701.95
2018-10-21T21:17:20.721Z,101695.59
2018-10-21T21:19:49.781Z,101696.23
2018-10-21T21:22:18.877Z,101697.80
2018-10-21T21:24:47.027Z,101694.35
2018-10-21T21:27:15.512Z,101698.41
2018-10-21T21:29:43.810Z,101697.14
2018-10-21T21:32:12.063Z,101699.73
2018-10-21T21:34:40.418Z,101705.94
2018-10-21T21:37:10.789Z,101703.52
2018-10-21T21:39:42.617Z,101698.77
2018-10-21T21:42:11.087Z,101703.16
2018-10-21T21:44:39.617Z,101704.43
2018-10-21T21:47:07.987Z,101703.28
2018-10-21T21:49:36.242Z,101704.79
2018-10-21T21:52:04.673Z,101708.84
2018-10-21T21:54:34.045Z,101701.64
2018-10-21T21:57:06.238Z,101703.20
2018-10-21T21:59:34.947Z,101703.90
2018-10-21T22:02:03.410Z,101703.60
2018-10-21T22:04:32.013Z,101702.83
2018-10-21T22:07:02.682Z,101707.22
2018-10-21T22:12:42.408Z,101700.86
2018-10-21T22:15:10.848Z,101704.41
2018-10-21T22:17:41.100Z,101699.41
2018-10-21T22:20:09.369Z,101695.23
2018-10-21T22:22:37.984Z,101694.87
2018-10-21T22:25:16.179Z,101698.64
2018-10-21T22:27:46.744Z,101701.78
2018-10-21T22:30:15.569Z,101696.69
2018-10-21T22:32:45.013Z,101694.66
2018-10-21T22:35:13.357Z,101696.95
2018-10-21T22:37:42.079Z,101696.39
2018-10-21T22:40:11.719Z,101690.11
2018-10-21T22:42:41.137Z,101689.75
2018-10-21T22:45:11.742Z,101689.27
2018-10-21T22:47:40.814Z,101688.38
2018-10-21T22:50:10.660Z,101680.59
2018-10-21T22:52:38.972Z,101677.81
2018-10-21T22:55:08.214Z,101680.48
2018-10-21T22:57:36.311Z,101673.86
2018-10-21T23:00:06.965Z,101680.04
2018-10-21T23:02:35.451Z,101670.98
2018-10-21T23:05:04.419Z,101679.83
2018-10-21T23:07:32.845Z,101680.02
2018-10-21T23:10:01.792Z,101672.86
2018-10-21T23:12:30.132Z,101677.02
2018-10-21T23:14:58.392Z,101682.25
2018-10-21T23:17:27.442Z,101685.34
2018-10-21T23:19:55.775Z,101682.21
2018-10-21T23:22:24.215Z,101687.93
2018-10-21T23:24:55.011Z,101690.81
2018-10-21T23:27:23.456Z,101689.98
2018-10-21T23:29:51.844Z,101697.95
2018-10-21T23:32:20.440Z,101695.78
2018-10-21T23:34:48.797Z,101699.70
2018-10-21T23:39:52.221Z,101707.58
2018-10-21T23:42:20.589Z,101708.02
2018-10-21T23:44:50.743Z,101705.08
2018-10-21T23:47:18.985Z,101703.55
2018-10-21T23:49:47.271Z,101706.69
2018-10-21T23:52:16.740Z,101710.45
2018-10-21T23:54:45.178Z,101711.34
2018-10-21T23:57:13.389Z,101703.41
2018-10-21T23:59:43.268Z,101699.97
